createdAt,value
2022-09-05T00:00:11.398Z,2.03
2022-09-05T00:02:41.875Z,1.93
2022-09-05T00:05:33.638Z,2.27
2022-09-05T00:07:58.995Z,2.03
2022-09-05T00:10:14.005Z,2.00
2022-09-05T00:12:23.676Z,2.03
2022-09-05T00:15:15.280Z,1.83
2022-09-05T00:18:09.844Z,1.97
2022-09-05T00:24:18.888Z,1.80
2022-09-05T00:24:28.845Z,2.00
2022-09-05T00:25:43.039Z,2.10
2022-09-05T00:28:25.248Z,1.90
2022-09-05T00:31:08.715Z,1.90
2022-09-05T00:33:22.952Z,1.90
2022-09-05T00:35:48.620Z,1.93
2022-09-05T00:37:51.790Z,1.90
2022-09-05T00:40:17.942Z,2.07
2022-09-05T00:42:22.039Z,2.13
2022-09-05T00:44:29.987Z,1.87
2022-09-05T00:46:40.176Z,1.97
2022-09-05T00:49:15.457Z,1.80
2022-09-05T00:51:29.367Z,1.80
2022-09-05T00:54:02.407Z,1.97
2022-09-05T00:56:18.737Z,1.90
2022-09-05T00:58:54.426Z,1.90
2022-09-05T01:00:59.031Z,1.90
2022-09-05T01:03:21.005Z,2.00
2022-09-05T01:05:56.441Z,1.83
2022-09-05T01:08:21.991Z,2.60
2022-09-05T01:10:53.314Z,2.07
2022-09-05T01:13:16.499Z,2.00
2022-09-05T01:15:33.132Z,2.13
2022-09-05T01:18:19.265Z,2.00
2022-09-05T01:20:51.293Z,2.00
2022-09-05T01:22:55.499Z,2.00
2022-09-05T01:25:20.177Z,2.37
2022-09-05T01:29:16.480Z,2.30
2022-09-05T01:30:31.962Z,2.27
2022-09-05T01:32:48.554Z,2.50
2022-09-05T01:35:27.916Z,2.20
2022-09-05T01:37:50.136Z,2.33
2022-09-05T01:40:15.545Z,2.23
2022-09-05T01:42:39.592Z,2.50
2022-09-05T01:45:09.652Z,2.23
2022-09-05T01:47:30.781Z,2.27
2022-09-05T01:49:49.052Z,2.20
2022-09-05T01:52:57.277Z,2.40
2022-09-05T01:55:27.301Z,2.30
2022-09-05T01:57:37.733Z,2.10
2022-09-05T02:00:00.572Z,2.20
2022-09-05T02:02:30.123Z,2.10
2022-09-05T02:04:57.326Z,2.33
2022-09-05T02:07:51.092Z,2.40
2022-09-05T02:10:14.788Z,2.37
2022-09-05T02:12:21.633Z,3.00
2022-09-05T02:14:51.991Z,2.20
2022-09-05T02:16:56.691Z,2.47
2022-09-05T02:19:04.922Z,3.20
2022-09-05T02:21:18.292Z,2.43
2022-09-05T02:23:42.961Z,2.40
2022-09-05T02:26:15.928Z,2.87
2022-09-05T02:28:49.885Z,2.40
2022-09-05T02:31:18.973Z,2.60
2022-09-05T02:33:26.967Z,2.40
2022-09-05T02:35:42.959Z,2.27
2022-09-05T02:41:18.787Z,2.63
2022-09-05T02:45:06.291Z,2.67
2022-09-05T02:45:06.735Z,2.30
2022-09-05T02:46:06.472Z,2.30
2022-09-05T02:48:22.881Z,2.47
2022-09-05T02:55:08.409Z,2.60
2022-09-05T02:57:41.588Z,2.53
2022-09-05T02:57:47.028Z,2.40
2022-09-05T02:59:09.152Z,2.63
2022-09-05T03:01:42.590Z,2.60
2022-09-05T03:04:05.858Z,2.23
2022-09-05T03:06:34.907Z,2.63
2022-09-05T03:08:56.215Z,2.60
2022-09-05T03:11:21.819Z,2.70
2022-09-05T03:13:54.410Z,2.30
2022-09-05T03:16:33.486Z,2.40
2022-09-05T03:19:06.900Z,2.47
2022-09-05T03:21:40.378Z,2.60
2022-09-05T03:24:19.716Z,2.67
2022-09-05T03:26:50.990Z,2.60
2022-09-05T03:29:08.014Z,2.60
2022-09-05T03:31:22.383Z,2.90
2022-09-05T03:33:55.991Z,2.83
2022-09-05T03:36:44.827Z,2.87
2022-09-05T03:38:52.057Z,2.77
2022-09-05T03:41:36.751Z,2.87
2022-09-05T03:44:04.928Z,2.80
2022-09-05T03:46:26.121Z,2.80
2022-09-05T03:49:04.152Z,2.63
2022-09-05T03:57:04.378Z,3.00
2022-09-05T03:57:14.441Z,3.10
2022-09-05T03:57:24.819Z,2.80
2022-09-05T03:59:04.380Z,2.80
2022-09-05T04:02:49.200Z,3.10
2022-09-05T04:08:13.653Z,3.20
2022-09-05T04:08:27.685Z,3.03
2022-09-05T04:09:19.311Z,3.27
2022-09-05T04:11:40.133Z,3.00
2022-09-05T04:13:53.095Z,2.77
2022-09-05T04:16:16.671Z,2.93
2022-09-05T04:18:18.530Z,2.70
2022-09-05T04:20:55.148Z,2.73
2022-09-05T04:23:14.148Z,2.70
2022-09-05T04:25:46.092Z,2.60
2022-09-05T04:28:10.217Z,2.63
2022-09-05T04:30:38.735Z,2.60
2022-09-05T04:33:08.108Z,2.40
2022-09-05T04:35:33.174Z,2.60
2022-09-05T04:38:14.544Z,3.00
2022-09-05T04:40:43.932Z,2.87
2022-09-05T04:42:46.441Z,2.90
2022-09-05T04:44:55.897Z,3.20
2022-09-05T04:47:23.716Z,3.60
2022-09-05T04:49:38.679Z,3.37
2022-09-05T04:52:25.328Z,3.50
2022-09-05T04:54:38.835Z,3.83
2022-09-05T04:56:46.202Z,4.17
2022-09-05T05:00:24.422Z,3.33
2022-09-05T05:06:01.639Z,3.67
2022-09-05T05:06:09.763Z,3.40
2022-09-05T05:06:47.244Z,3.17
2022-09-05T05:08:58.306Z,3.67
2022-09-05T05:17:54.142Z,3.77
2022-09-05T05:17:57.928Z,3.40
2022-09-05T05:18:11.991Z,3.70
2022-09-05T05:19:02.985Z,3.50
2022-09-05T05:21:18.453Z,3.50
2022-09-05T05:23:37.141Z,3.57
2022-09-05T05:25:47.501Z,3.47
2022-09-05T05:28:25.074Z,3.37
2022-09-05T05:30:31.824Z,3.40
2022-09-05T05:32:46.945Z,3.60
2022-09-05T05:34:55.305Z,3.80
2022-09-05T05:37:18.194Z,3.50
2022-09-05T05:39:28.945Z,3.40
2022-09-05T05:41:51.601Z,3.60
2022-09-05T05:43:55.556Z,3.47
2022-09-05T05:46:00.452Z,3.17
2022-09-05T05:48:23.911Z,3.17
2022-09-05T05:50:50.700Z,3.40
2022-09-05T05:53:41.054Z,3.30
2022-09-05T05:56:03.550Z,3.40
2022-09-05T05:58:26.606Z,3.60
2022-09-05T06:01:27.388Z,3.40
2022-09-05T06:03:59.453Z,3.37
2022-09-05T06:06:14.915Z,3.63
2022-09-05T06:10:52.570Z,3.57
2022-09-05T06:14:52.539Z,3.50
2022-09-05T06:15:01.328Z,3.50
2022-09-05T06:17:19.946Z,3.17
2022-09-05T06:21:42.535Z,3.37
2022-09-05T06:23:02.465Z,3.10
2022-09-05T06:25:16.430Z,2.73
2022-09-05T06:27:43.910Z,2.77
2022-09-05T06:30:22.955Z,2.80
2022-09-05T06:32:43.148Z,2.80
2022-09-05T06:35:00.023Z,2.87
2022-09-05T06:37:46.619Z,2.80
2022-09-05T06:40:06.182Z,2.40
2022-09-05T06:42:43.579Z,3.00
2022-09-05T06:45:07.728Z,3.10
2022-09-05T06:47:34.339Z,3.27
2022-09-05T06:50:24.198Z,2.67
2022-09-05T06:53:30.347Z,2.57
2022-09-05T06:55:57.011Z,2.57
2022-09-05T06:58:23.693Z,2.80
2022-09-05T07:00:45.229Z,2.60
2022-09-05T07:03:52.206Z,2.33
2022-09-05T07:06:19.552Z,2.47
2022-09-05T07:08:44.341Z,2.30
2022-09-05T07:11:02.937Z,2.43
2022-09-05T07:13:28.970Z,2.50
2022-09-05T07:15:58.256Z,2.70
2022-09-05T07:18:17.751Z,2.20
2022-09-05T07:20:23.938Z,2.93
2022-09-05T07:22:48.537Z,2.57
2022-09-05T07:24:56.030Z,2.43
2022-09-05T07:27:03.184Z,2.40
2022-09-05T07:29:07.398Z,2.70
2022-09-05T07:31:37.187Z,2.50
2022-09-05T07:33:45.378Z,2.67
2022-09-05T07:35:54.187Z,2.20
2022-09-05T07:38:13.899Z,2.43
2022-09-05T07:40:26.034Z,1.93
2022-09-05T07:42:39.563Z,2.30
2022-09-05T07:44:59.816Z,2.23
2022-09-05T07:47:08.070Z,2.40
2022-09-05T07:49:20.612Z,2.20
2022-09-05T07:55:26.202Z,2.30
2022-09-05T07:57:02.241Z,1.80
2022-09-05T07:57:06.015Z,2.13
2022-09-05T07:58:41.754Z,1.90
2022-09-05T08:00:50.750Z,2.07
2022-09-05T08:02:54.761Z,1.90
2022-09-05T08:05:05.677Z,2.10
2022-09-05T08:07:50.059Z,2.00
2022-09-05T08:10:08.678Z,1.80
2022-09-05T08:12:09.665Z,1.90
2022-09-05T08:14:44.985Z,1.77
2022-09-05T08:16:49.855Z,2.20
2022-09-05T08:19:29.695Z,1.90
2022-09-05T08:21:43.713Z,2.00
2022-09-05T08:24:13.686Z,1.87
2022-09-05T08:26:19.718Z,2.00
2022-09-05T08:28:25.665Z,2.00
2022-09-05T08:30:48.818Z,1.90
2022-09-05T08:33:11.188Z,1.80
2022-09-05T08:35:28.238Z,1.70
2022-09-05T08:37:31.937Z,1.70
2022-09-05T08:39:34.520Z,1.80
2022-09-05T08:42:14.311Z,1.73
2022-09-05T08:46:47.587Z,1.60
2022-09-05T08:47:11.673Z,1.73
2022-09-05T08:49:37.766Z,1.80
2022-09-05T08:52:06.890Z,1.70
2022-09-05T08:54:29.541Z,1.60
2022-09-05T08:57:00.372Z,1.90
2022-09-05T08:59:33.342Z,1.77
2022-09-05T09:02:46.660Z,1.90
2022-09-05T09:05:07.630Z,1.80
2022-09-05T09:07:48.007Z,1.60
2022-09-05T09:10:02.650Z,1.50
2022-09-05T09:12:37.815Z,1.60
2022-09-05T09:15:04.099Z,1.77
2022-09-05T09:17:29.387Z,1.77
2022-09-05T09:19:44.050Z,1.60
2022-09-05T09:22:03.915Z,1.90
2022-09-05T09:24:25.039Z,1.50
2022-09-05T09:26:40.045Z,1.60
2022-09-05T09:29:04.048Z,1.55
2022-09-05T09:31:31.999Z,1.48
2022-09-05T09:33:52.020Z,1.80
2022-09-05T09:35:59.135Z,1.70
2022-09-05T09:38:40.072Z,1.63
2022-09-05T09:41:18.246Z,1.58
2022-09-05T09:43:35.313Z,1.90
2022-09-05T09:46:11.303Z,1.63
2022-09-05T09:48:26.190Z,1.42
2022-09-05T09:51:14.281Z,1.50
2022-09-05T09:53:36.972Z,1.25
2022-09-05T09:56:09.949Z,1.30
2022-09-05T09:58:36.807Z,1.48
2022-09-05T10:00:51.884Z,1.40
2022-09-05T10:07:38.199Z,1.33
2022-09-05T10:10:46.917Z,1.73
2022-09-05T10:10:50.234Z,1.80
2022-09-05T10:11:56.169Z,1.98
2022-09-05T10:14:33.868Z,1.95
2022-09-05T10:16:53.288Z,1.98
2022-09-05T10:19:20.629Z,1.58
2022-09-05T10:25:18.879Z,1.73
2022-09-05T10:27:56.617Z,1.60
2022-09-05T10:30:11.920Z,1.50
2022-09-05T10:35:08.137Z,1.77
2022-09-05T10:35:16.997Z,1.95
2022-09-05T10:37:12.827Z,1.40
2022-09-05T10:39:31.239Z,1.55
2022-09-05T10:41:51.651Z,1.60
2022-09-05T10:44:02.107Z,1.50
2022-09-05T10:46:51.638Z,1.40
2022-09-05T10:48:56.280Z,1.50
2022-09-05T10:51:27.951Z,1.30
2022-09-05T10:54:01.213Z,1.42
2022-09-05T10:56:19.565Z,1.50
2022-09-05T10:59:19.085Z,1.30
2022-09-05T11:02:32.143Z,1.48
2022-09-05T11:04:12.752Z,1.60
2022-09-05T11:06:25.005Z,1.45
2022-09-05T11:08:58.778Z,1.45
2022-09-05T11:11:28.602Z,1.17
2022-09-05T11:13:49.869Z,1.20
2022-09-05T11:16:12.778Z,1.50
2022-09-05T11:18:55.188Z,1.30
2022-09-05T11:21:12.978Z,1.05
2022-09-05T11:23:30.540Z,1.33
2022-09-05T11:25:39.928Z,1.42
2022-09-05T11:27:45.774Z,1.40
2022-09-05T11:29:50.874Z,1.30
2022-09-05T11:37:29.410Z,1.33
2022-09-05T11:39:48.936Z,1.40
2022-09-05T11:40:09.522Z,1.50
2022-09-05T11:40:35.182Z,1.50
2022-09-05T11:43:02.251Z,1.30
2022-09-05T11:45:29.544Z,1.30
2022-09-05T11:47:48.227Z,1.20
2022-09-05T11:50:25.547Z,1.20
2022-09-05T11:53:05.111Z,1.20
2022-09-05T11:55:20.737Z,1.20
2022-09-05T11:57:35.023Z,1.20
2022-09-05T12:00:28.148Z,1.40
2022-09-05T12:02:49.869Z,1.40
2022-09-05T12:05:50.216Z,1.20
2022-09-05T12:07:46.051Z,1.30
2022-09-05T12:10:45.913Z,1.30
2022-09-05T12:13:03.891Z,1.85
2022-09-05T12:15:33.762Z,1.33
2022-09-05T12:17:52.655Z,1.52
2022-09-05T12:20:17.067Z,1.20
2022-09-05T12:22:39.219Z,1.55
2022-09-05T12:26:08.862Z,1.30
2022-09-05T12:27:47.284Z,1.40
2022-09-05T12:30:01.135Z,1.20
2022-09-05T12:33:30.230Z,1.15
2022-09-05T12:36:13.058Z,1.40
2022-09-05T12:40:32.586Z,1.75
2022-09-05T12:40:46.150Z,1.50
2022-09-05T12:42:25.682Z,1.40
2022-09-05T12:44:45.024Z,1.63
2022-09-05T12:47:16.883Z,1.42
2022-09-05T12:49:34.415Z,1.27
2022-09-05T12:51:44.995Z,1.38
2022-09-05T12:53:55.224Z,1.40
2022-09-05T12:58:15.142Z,1.70
2022-09-05T13:03:01.614Z,1.27
2022-09-05T13:03:12.275Z,1.40
2022-09-05T13:04:17.860Z,1.55
2022-09-05T13:06:33.223Z,1.40
2022-09-05T13:09:00.008Z,1.30
2022-09-05T13:14:49.487Z,1.35
2022-09-05T13:14:57.072Z,1.50
2022-09-05T13:15:56.771Z,1.30
2022-09-05T13:18:18.673Z,1.25
2022-09-05T13:20:39.226Z,1.20
2022-09-05T13:22:48.572Z,1.42
2022-09-05T13:25:13.765Z,1.42
2022-09-05T13:27:30.264Z,1.10
2022-09-05T13:30:03.766Z,1.30
2022-09-05T13:38:10.167Z,1.30
2022-09-05T13:38:15.173Z,1.52
2022-09-05T13:38:15.761Z,1.20
2022-09-05T13:40:11.325Z,1.30
2022-09-05T13:42:20.796Z,1.27
2022-09-05T13:44:28.276Z,1.50
2022-09-05T13:46:57.864Z,1.30
2022-09-05T13:49:29.410Z,1.30
2022-09-05T13:51:44.215Z,1.42
2022-09-05T13:54:18.508Z,1.33
2022-09-05T13:56:29.006Z,1.30
2022-09-05T13:58:51.045Z,1.15
2022-09-05T14:01:26.959Z,1.40
2022-09-05T14:03:40.524Z,1.75
2022-09-05T14:05:51.500Z,1.38
2022-09-05T14:08:28.326Z,1.30
2022-09-05T14:11:07.054Z,1.25
2022-09-05T14:13:18.683Z,1.30
2022-09-05T14:15:28.963Z,1.25
2022-09-05T14:17:53.712Z,1.40
2022-09-05T14:20:18.734Z,1.20
2022-09-05T14:22:44.165Z,1.33
2022-09-05T14:24:55.753Z,1.20
2022-09-05T14:27:00.426Z,1.35
2022-09-05T14:29:14.503Z,1.30
2022-09-05T14:37:37.219Z,1.48
2022-09-05T14:37:44.745Z,1.20
2022-09-05T14:37:52.007Z,1.40
2022-09-05T14:39:20.513Z,1.23
2022-09-05T14:42:03.587Z,1.60
2022-09-05T14:44:44.079Z,1.50
2022-09-05T14:47:02.603Z,1.20
2022-09-05T14:49:29.014Z,1.27
2022-09-05T14:51:49.045Z,1.40
2022-09-05T14:54:01.660Z,1.13
2022-09-05T14:58:26.394Z,1.48
2022-09-05T15:02:41.493Z,1.30
2022-09-05T15:02:54.897Z,1.10
2022-09-05T15:06:02.712Z,1.30
2022-09-05T15:08:44.631Z,1.13
2022-09-05T15:12:24.051Z,1.13
2022-09-05T15:13:19.500Z,1.30
2022-09-05T15:15:31.830Z,1.13
2022-09-05T15:17:34.854Z,1.42
2022-09-05T15:20:06.490Z,1.30
2022-09-05T15:22:33.093Z,1.30
2022-09-05T15:24:39.269Z,1.40
2022-09-05T15:26:53.425Z,1.30
2022-09-05T15:29:14.023Z,1.20
2022-09-05T15:31:19.182Z,1.48
2022-09-05T15:33:28.632Z,1.65
2022-09-05T15:35:42.324Z,1.50
2022-09-05T15:37:45.005Z,1.38
2022-09-05T15:39:46.796Z,1.30
2022-09-05T15:41:58.030Z,1.40
2022-09-05T15:44:04.445Z,1.58
2022-09-05T15:46:12.301Z,1.20
2022-09-05T15:48:29.921Z,1.42
2022-09-05T15:50:46.424Z,1.35
2022-09-05T15:52:52.669Z,1.33
2022-09-05T15:55:20.158Z,1.23
2022-09-05T15:57:29.989Z,1.50
2022-09-05T15:59:49.600Z,1.40
2022-09-05T16:01:59.674Z,1.42
2022-09-05T16:08:56.845Z,1.25
2022-09-05T16:10:28.079Z,1.17
2022-09-05T16:10:49.988Z,1.38
2022-09-05T16:14:09.787Z,1.48
2022-09-05T16:23:11.953Z,1.13
2022-09-05T16:23:16.667Z,1.27
2022-09-05T16:23:31.905Z,1.40
2022-09-05T16:23:41.513Z,1.23
2022-09-05T16:25:48.606Z,1.23
2022-09-05T16:28:09.447Z,1.50
2022-09-05T16:30:19.628Z,1.10
2022-09-05T16:32:26.479Z,1.15
2022-09-05T16:34:34.596Z,1.40
2022-09-05T16:37:02.423Z,1.38
2022-09-05T16:39:15.853Z,1.52
2022-09-05T16:41:36.443Z,1.30
2022-09-05T16:43:43.491Z,1.52
2022-09-05T16:45:50.307Z,2.28
2022-09-05T16:48:16.751Z,1.52
2022-09-05T16:50:37.838Z,1.50
2022-09-05T16:52:53.170Z,1.40
2022-09-05T16:55:30.356Z,0.95
2022-09-05T16:57:37.175Z,1.17
2022-09-05T16:59:45.153Z,1.20
2022-09-05T17:02:06.700Z,1.23
2022-09-05T17:04:19.951Z,1.25
2022-09-05T17:06:26.048Z,1.10
2022-09-05T17:08:32.021Z,1.42
2022-09-05T17:10:40.930Z,1.10
2022-09-05T17:12:43.614Z,1.20
2022-09-05T17:14:49.723Z,1.33
2022-09-05T17:17:01.171Z,1.20
2022-09-05T17:19:41.947Z,1.23
2022-09-05T17:24:47.821Z,1.50
2022-09-05T17:29:24.163Z,1.30
2022-09-05T17:29:24.830Z,1.02
2022-09-05T17:32:19.364Z,1.25
2022-09-05T17:35:17.214Z,1.60
2022-09-05T17:37:46.186Z,1.40
2022-09-05T17:40:17.785Z,1.20
2022-09-05T17:43:01.794Z,1.30
2022-09-05T17:45:29.817Z,1.35
2022-09-05T17:47:55.639Z,1.20
2022-09-05T17:50:20.128Z,1.20
2022-09-05T17:52:23.293Z,1.45
2022-09-05T17:54:33.590Z,1.20
2022-09-05T17:56:38.671Z,1.20
2022-09-05T17:59:01.907Z,1.35
2022-09-05T18:01:16.927Z,1.20
2022-09-05T18:03:44.969Z,1.25
2022-09-05T18:06:01.122Z,1.10
2022-09-05T18:08:02.875Z,1.35
2022-09-05T18:10:14.615Z,1.27
2022-09-05T18:13:11.681Z,1.27
2022-09-05T18:14:53.876Z,1.42
2022-09-05T18:17:44.342Z,1.40
2022-09-05T18:19:46.183Z,1.30
2022-09-05T18:22:11.466Z,1.40
2022-09-05T18:24:35.086Z,1.30
2022-09-05T18:26:46.402Z,1.80
2022-09-05T18:29:16.726Z,1.33
2022-09-05T18:31:53.415Z,1.52
2022-09-05T18:34:14.030Z,1.60
2022-09-05T18:36:32.688Z,1.55
2022-09-05T18:38:51.736Z,1.58
2022-09-05T18:41:23.246Z,1.65
2022-09-05T18:43:32.991Z,1.33
2022-09-05T18:45:35.756Z,1.55
2022-09-05T18:47:58.837Z,1.50
2022-09-05T18:50:24.760Z,1.77
2022-09-05T18:52:50.711Z,1.45
2022-09-05T18:56:10.611Z,1.50
2022-09-05T18:57:38.893Z,1.60
2022-09-05T18:59:55.234Z,1.80
2022-09-05T19:02:44.326Z,1.33
2022-09-05T19:04:53.203Z,1.50
2022-09-05T19:06:58.113Z,1.65
2022-09-05T19:09:15.542Z,1.90
2022-09-05T19:11:28.837Z,1.80
2022-09-05T19:13:38.430Z,1.85
2022-09-05T19:15:58.539Z,1.95
2022-09-05T19:18:26.401Z,1.90
2022-09-05T19:20:50.395Z,2.10
2022-09-05T19:23:11.778Z,1.93
2022-09-05T19:25:30.596Z,2.00
2022-09-05T19:30:31.114Z,2.07
2022-09-05T19:36:47.059Z,2.13
2022-09-05T19:37:09.047Z,1.90
2022-09-05T19:37:10.373Z,2.20
2022-09-05T19:37:30.415Z,2.03
2022-09-05T19:43:15.650Z,2.07
2022-09-05T19:47:27.107Z,2.40
2022-09-05T19:47:46.771Z,1.70
2022-09-05T19:47:52.054Z,1.70
2022-09-05T19:49:27.303Z,1.80
2022-09-05T19:51:29.232Z,1.70
2022-09-05T19:53:34.347Z,1.73
2022-09-05T19:55:39.831Z,1.90
2022-09-05T19:57:52.648Z,2.33
2022-09-05T20:00:11.765Z,1.90
2022-09-05T20:02:31.218Z,2.00
2022-09-05T20:04:39.157Z,1.80
2022-09-05T20:06:40.937Z,1.80
2022-09-05T20:08:45.161Z,1.80
2022-09-05T20:10:46.941Z,2.00
2022-09-05T20:12:48.700Z,2.00
2022-09-05T20:14:50.614Z,2.17
2022-09-05T20:16:56.502Z,1.80
2022-09-05T20:18:59.369Z,1.80
2022-09-05T20:21:19.742Z,2.00
2022-09-05T20:23:28.746Z,2.20
2022-09-05T20:25:39.641Z,1.80
2022-09-05T20:27:42.220Z,1.80
2022-09-05T20:29:55.944Z,1.80
2022-09-05T20:31:59.195Z,1.90
2022-09-05T20:34:11.949Z,1.90
2022-09-05T20:43:09.786Z,2.00
2022-09-05T20:43:17.274Z,1.80
2022-09-05T20:43:35.868Z,2.03
2022-09-05T20:44:04.773Z,1.73
2022-09-05T20:47:56.167Z,1.90
2022-09-05T20:54:09.956Z,1.87
2022-09-05T20:54:21.351Z,1.87
2022-09-05T20:54:22.766Z,1.50
2022-09-05T20:56:05.420Z,1.83
2022-09-05T20:58:24.720Z,1.87
2022-09-05T21:00:33.245Z,1.90
2022-09-05T21:02:35.548Z,2.00
2022-09-05T21:04:40.448Z,2.10
2022-09-05T21:06:42.304Z,1.70
2022-09-05T21:08:44.064Z,1.80
2022-09-05T21:10:56.516Z,1.90
2022-09-05T21:13:00.440Z,1.57
2022-09-05T21:15:08.034Z,1.90
2022-09-05T21:17:30.377Z,2.03
2022-09-05T21:19:36.289Z,1.90
2022-09-05T21:21:38.043Z,2.07
2022-09-05T21:23:42.002Z,1.93
2022-09-05T21:25:57.693Z,1.90
2022-09-05T21:28:03.161Z,2.10
2022-09-05T21:30:27.117Z,1.90
2022-09-05T21:32:37.859Z,1.77
2022-09-05T21:34:55.013Z,1.87
2022-09-05T21:37:06.392Z,1.83
2022-09-05T21:39:09.724Z,1.73
2022-09-05T21:41:15.767Z,1.93
2022-09-05T21:47:35.654Z,1.63
2022-09-05T21:47:38.333Z,1.87
2022-09-05T21:48:04.100Z,1.90
2022-09-05T21:50:06.371Z,2.03
2022-09-05T21:52:08.718Z,2.30
2022-09-05T21:54:13.186Z,1.70
2022-09-05T21:59:26.445Z,2.07
2022-09-05T21:59:29.611Z,1.77
2022-09-05T22:01:51.884Z,1.90
2022-09-05T22:03:59.415Z,1.80
2022-09-05T22:06:04.229Z,2.20
2022-09-05T22:08:16.452Z,2.00
2022-09-05T22:10:21.153Z,1.83
2022-09-05T22:12:38.977Z,2.00
2022-09-05T22:14:41.622Z,2.30
2022-09-05T22:16:47.345Z,1.80
2022-09-05T22:18:51.163Z,1.90
2022-09-05T22:21:31.864Z,1.80
2022-09-05T22:23:14.970Z,1.93
2022-09-05T22:25:27.582Z,2.00
2022-09-05T22:27:34.428Z,1.87
2022-09-05T22:29:36.233Z,2.03
2022-09-05T22:31:38.398Z,2.00
2022-09-05T22:33:40.598Z,2.13
2022-09-05T22:35:42.422Z,1.93
2022-09-05T22:37:47.358Z,2.00
2022-09-05T22:39:50.594Z,1.90
2022-09-05T22:41:53.385Z,2.10
2022-09-05T22:43:55.222Z,2.23
2022-09-05T22:45:59.795Z,1.90
2022-09-05T22:48:11.667Z,1.63
2022-09-05T22:50:13.463Z,1.90
2022-09-05T22:52:16.583Z,1.83
2022-09-05T22:54:18.652Z,1.67
2022-09-05T22:56:34.481Z,1.77
2022-09-05T22:58:43.970Z,1.40
2022-09-05T23:00:45.792Z,1.50
2022-09-05T23:02:52.175Z,1.50
2022-09-05T23:04:55.426Z,1.50
2022-09-05T23:07:01.976Z,1.40
2022-09-05T23:09:06.371Z,1.43
2022-09-05T23:11:10.473Z,1.40
2022-09-05T23:13:12.591Z,1.50
2022-09-05T23:15:14.688Z,1.60
2022-09-05T23:17:17.542Z,1.30
2022-09-05T23:19:19.243Z,1.30
2022-09-05T23:21:21.066Z,1.30
2022-09-05T23:23:22.958Z,1.67
2022-09-05T23:25:24.982Z,1.37
2022-09-05T23:27:26.836Z,1.43
2022-09-05T23:29:29.890Z,1.43
2022-09-05T23:31:31.719Z,1.43
2022-09-05T23:33:34.398Z,1.50
2022-09-05T23:35:37.066Z,1.60
2022-09-05T23:37:43.420Z,1.60
2022-09-05T23:39:45.315Z,1.50
2022-09-05T23:41:48.357Z,1.60
2022-09-05T23:43:50.462Z,1.50
2022-09-05T23:45:52.166Z,1.70
2022-09-05T23:48:01.465Z,1.60
2022-09-05T23:50:05.973Z,1.57
2022-09-05T23:52:07.983Z,1.70
2022-09-05T23:54:09.939Z,2.00
2022-09-05T23:56:12.149Z,1.73
2022-09-05T23:58:16.787Z,1.90
